sensor_id;sensor_type;location;lat;lon;timestamp;P1;durP1;ratioP1;P2;durP2;ratioP2
76894;SDS011;65855;42.030;13.078;2023-08-17T00:00:44;14.77;;;8.05;;
76894;SDS011;65855;42.030;13.078;2023-08-17T00:03:10;17.10;;;9.95;;
76894;SDS011;65855;42.030;13.078;2023-08-17T00:05:35;16.10;;;9.73;;
76894;SDS011;65855;42.030;13.078;2023-08-17T00:08:00;14.65;;;9.07;;
76894;SDS011;65855;42.030;13.078;2023-08-17T00:10:27;16.67;;;10.10;;
76894;SDS011;65855;42.030;13.078;2023-08-17T00:12:53;16.20;;;9.50;;
76894;SDS011;65855;42.030;13.078;2023-08-17T00:15:19;15.93;;;9.60;;
76894;SDS011;65855;42.030;13.078;2023-08-17T00:17:44;14.68;;;9.20;;
76894;SDS011;65855;42.030;13.078;2023-08-17T00:20:09;16.45;;;8.50;;
76894;SDS011;65855;42.030;13.078;2023-08-17T00:22:35;15.02;;;10.02;;
76894;SDS011;65855;42.030;13.078;2023-08-17T00:25:01;14.90;;;10.27;;
76894;SDS011;65855;42.030;13.078;2023-08-17T00:27:29;16.88;;;10.30;;
76894;SDS011;65855;42.030;13.078;2023-08-17T00:29:57;18.02;;;10.65;;
76894;SDS011;65855;42.030;13.078;2023-08-17T00:32:22;15.13;;;8.48;;
76894;SDS011;65855;42.030;13.078;2023-08-17T00:34:47;15.05;;;9.52;;
76894;SDS011;65855;42.030;13.078;2023-08-17T00:37:13;17.85;;;9.65;;
76894;SDS011;65855;42.030;13.078;2023-08-17T00:39:38;19.73;;;9.73;;
76894;SDS011;65855;42.030;13.078;2023-08-17T00:42:04;15.82;;;9.82;;
76894;SDS011;65855;42.030;13.078;2023-08-17T00:44:29;17.77;;;9.23;;
76894;SDS011;65855;42.030;13.078;2023-08-17T00:46:55;15.48;;;8.85;;
76894;SDS011;65855;42.030;13.078;2023-08-17T00:49:21;17.50;;;10.43;;
76894;SDS011;65855;42.030;13.078;2023-08-17T00:51:47;13.70;;;8.55;;
76894;SDS011;65855;42.030;13.078;2023-08-17T00:54:13;15.13;;;9.82;;
76894;SDS011;65855;42.030;13.078;2023-08-17T00:56:38;17.48;;;9.25;;
76894;SDS011;65855;42.030;13.078;2023-08-17T00:59:04;15.02;;;9.07;;
76894;SDS011;65855;42.030;13.078;2023-08-17T01:01:30;14.20;;;8.68;;
76894;SDS011;65855;42.030;13.078;2023-08-17T01:03:56;14.93;;;8.93;;
76894;SDS011;65855;42.030;13.078;2023-08-17T01:06:21;14.65;;;9.00;;
76894;SDS011;65855;42.030;13.078;2023-08-17T01:08:47;17.08;;;9.07;;
76894;SDS011;65855;42.030;13.078;2023-08-17T01:16:24;14.85;;;9.10;;
76894;SDS011;65855;42.030;13.078;2023-08-17T01:18:53;15.25;;;9.15;;
76894;SDS011;65855;42.030;13.078;2023-08-17T01:21:21;15.10;;;8.55;;
76894;SDS011;65855;42.030;13.078;2023-08-17T01:23:48;14.95;;;9.45;;
76894;SDS011;65855;42.030;13.078;2023-08-17T01:26:14;16.92;;;8.70;;
76894;SDS011;65855;42.030;13.078;2023-08-17T01:28:44;15.20;;;8.85;;
76894;SDS011;65855;42.030;13.078;2023-08-17T01:31:13;18.02;;;9.77;;
76894;SDS011;65855;42.030;13.078;2023-08-17T01:33:45;17.92;;;10.57;;
76894;SDS011;65855;42.030;13.078;2023-08-17T01:36:19;17.38;;;10.82;;
76894;SDS011;65855;42.030;13.078;2023-08-17T01:38:47;19.48;;;10.32;;
76894;SDS011;65855;42.030;13.078;2023-08-17T01:41:15;23.25;;;10.68;;
76894;SDS011;65855;42.030;13.078;2023-08-17T01:43:44;18.27;;;9.52;;
76894;SDS011;65855;42.030;13.078;2023-08-17T01:46:14;18.42;;;10.52;;
76894;SDS011;65855;42.030;13.078;2023-08-17T01:48:41;18.58;;;12.15;;
76894;SDS011;65855;42.030;13.078;2023-08-17T01:51:07;16.50;;;11.32;;
76894;SDS011;65855;42.030;13.078;2023-08-17T01:53:33;15.52;;;9.73;;
76894;SDS011;65855;42.030;13.078;2023-08-17T01:55:58;15.80;;;9.88;;
76894;SDS011;65855;42.030;13.078;2023-08-17T01:58:24;13.93;;;9.32;;
76894;SDS011;65855;42.030;13.078;2023-08-17T02:00:49;20.33;;;9.73;;
76894;SDS011;65855;42.030;13.078;2023-08-17T02:03:14;19.15;;;10.55;;
76894;SDS011;65855;42.030;13.078;2023-08-17T02:05:44;15.45;;;10.13;;
76894;SDS011;65855;42.030;13.078;2023-08-17T02:08:10;14.05;;;8.60;;
76894;SDS011;65855;42.030;13.078;2023-08-17T02:10:36;16.42;;;9.32;;
76894;SDS011;65855;42.030;13.078;2023-08-17T02:13:01;16.38;;;9.65;;
76894;SDS011;65855;42.030;13.078;2023-08-17T02:15:27;16.45;;;10.30;;
76894;SDS011;65855;42.030;13.078;2023-08-17T02:17:52;20.98;;;10.65;;
76894;SDS011;65855;42.030;13.078;2023-08-17T02:20:18;14.85;;;9.38;;
76894;SDS011;65855;42.030;13.078;2023-08-17T02:22:44;15.98;;;10.52;;
76894;SDS011;65855;42.030;13.078;2023-08-17T02:25:09;16.45;;;10.27;;
76894;SDS011;65855;42.030;13.078;2023-08-17T02:27:34;17.30;;;9.73;;
76894;SDS011;65855;42.030;13.078;2023-08-17T02:30:00;14.85;;;8.50;;
76894;SDS011;65855;42.030;13.078;2023-08-17T02:32:25;16.05;;;9.32;;
76894;SDS011;65855;42.030;13.078;2023-08-17T02:34:51;14.70;;;8.48;;
76894;SDS011;65855;42.030;13.078;2023-08-17T02:37:16;16.13;;;7.88;;
76894;SDS011;65855;42.030;13.078;2023-08-17T02:39:42;13.00;;;7.60;;
76894;SDS011;65855;42.030;13.078;2023-08-17T02:42:07;16.17;;;9.65;;
76894;SDS011;65855;42.030;13.078;2023-08-17T02:44:33;15.48;;;8.88;;
76894;SDS011;65855;42.030;13.078;2023-08-17T02:46:58;15.40;;;8.75;;
76894;SDS011;65855;42.030;13.078;2023-08-17T02:49:24;16.05;;;8.23;;
76894;SDS011;65855;42.030;13.078;2023-08-17T02:51:49;14.43;;;8.85;;
76894;SDS011;65855;42.030;13.078;2023-08-17T02:54:15;16.98;;;10.40;;
76894;SDS011;65855;42.030;13.078;2023-08-17T02:56:40;20.02;;;9.90;;
76894;SDS011;65855;42.030;13.078;2023-08-17T02:59:05;17.48;;;10.60;;
76894;SDS011;65855;42.030;13.078;2023-08-17T03:01:31;17.85;;;11.32;;
76894;SDS011;65855;42.030;13.078;2023-08-17T03:03:57;20.15;;;11.57;;
76894;SDS011;65855;42.030;13.078;2023-08-17T03:06:22;20.90;;;12.50;;
76894;SDS011;65855;42.030;13.078;2023-08-17T03:08:48;17.73;;;10.75;;
76894;SDS011;65855;42.030;13.078;2023-08-17T03:11:13;14.88;;;9.45;;
76894;SDS011;65855;42.030;13.078;2023-08-17T03:13:38;19.27;;;9.93;;
76894;SDS011;65855;42.030;13.078;2023-08-17T03:16:04;17.60;;;9.85;;
76894;SDS011;65855;42.030;13.078;2023-08-17T03:18:29;19.70;;;10.40;;
76894;SDS011;65855;42.030;13.078;2023-08-17T03:20:55;25.33;;;12.23;;
76894;SDS011;65855;42.030;13.078;2023-08-17T03:23:20;20.83;;;11.85;;
76894;SDS011;65855;42.030;13.078;2023-08-17T03:25:46;19.50;;;11.38;;
76894;SDS011;65855;42.030;13.078;2023-08-17T03:28:11;22.38;;;12.80;;
76894;SDS011;65855;42.030;13.078;2023-08-17T03:30:37;19.92;;;12.57;;
76894;SDS011;65855;42.030;13.078;2023-08-17T03:33:02;21.20;;;12.20;;
76894;SDS011;65855;42.030;13.078;2023-08-17T03:35:28;20.42;;;12.90;;
76894;SDS011;65855;42.030;13.078;2023-08-17T03:37:53;19.45;;;12.80;;
76894;SDS011;65855;42.030;13.078;2023-08-17T03:40:19;18.48;;;11.77;;
76894;SDS011;65855;42.030;13.078;2023-08-17T03:42:44;21.95;;;12.73;;
76894;SDS011;65855;42.030;13.078;2023-08-17T03:45:09;16.88;;;10.55;;
76894;SDS011;65855;42.030;13.078;2023-08-17T03:47:35;16.92;;;10.57;;
76894;SDS011;65855;42.030;13.078;2023-08-17T03:50:00;19.38;;;13.38;;
76894;SDS011;65855;42.030;13.078;2023-08-17T03:52:26;23.55;;;13.00;;
76894;SDS011;65855;42.030;13.078;2023-08-17T03:54:51;22.42;;;12.38;;
76894;SDS011;65855;42.030;13.078;2023-08-17T03:57:17;20.75;;;12.98;;
76894;SDS011;65855;42.030;13.078;2023-08-17T03:59:42;23.33;;;14.60;;
76894;SDS011;65855;42.030;13.078;2023-08-17T04:02:08;23.10;;;13.48;;
76894;SDS011;65855;42.030;13.078;2023-08-17T04:04:33;18.65;;;12.90;;
76894;SDS011;65855;42.030;13.078;2023-08-17T04:06:59;21.55;;;13.93;;
76894;SDS011;65855;42.030;13.078;2023-08-17T04:09:24;22.88;;;13.95;;
76894;SDS011;65855;42.030;13.078;2023-08-17T04:11:50;21.23;;;12.23;;
76894;SDS011;65855;42.030;13.078;2023-08-17T04:14:15;23.83;;;13.55;;
76894;SDS011;65855;42.030;13.078;2023-08-17T04:16:41;31.67;;;14.48;;
76894;SDS011;65855;42.030;13.078;2023-08-17T04:19:06;25.13;;;13.98;;
76894;SDS011;65855;42.030;13.078;2023-08-17T04:21:32;26.70;;;14.85;;
76894;SDS011;65855;42.030;13.078;2023-08-17T04:23:57;23.08;;;14.70;;
76894;SDS011;65855;42.030;13.078;2023-08-17T04:26:23;23.60;;;13.90;;
76894;SDS011;65855;42.030;13.078;2023-08-17T04:28:49;23.80;;;14.45;;
76894;SDS011;65855;42.030;13.078;2023-08-17T04:31:15;22.30;;;13.10;;
76894;SDS011;65855;42.030;13.078;2023-08-17T04:33:42;21.60;;;13.60;;
76894;SDS011;65855;42.030;13.078;2023-08-17T04:36:07;21.48;;;13.63;;
76894;SDS011;65855;42.030;13.078;2023-08-17T04:38:33;25.75;;;13.90;;
76894;SDS011;65855;42.030;13.078;2023-08-17T04:40:58;20.20;;;12.75;;
76894;SDS011;65855;42.030;13.078;2023-08-17T04:43:24;20.83;;;13.43;;
76894;SDS011;65855;42.030;13.078;2023-08-17T04:45:49;19.52;;;14.05;;
76894;SDS011;65855;42.030;13.078;2023-08-17T04:48:15;22.83;;;12.60;;
76894;SDS011;65855;42.030;13.078;2023-08-17T04:50:40;21.27;;;13.38;;
76894;SDS011;65855;42.030;13.078;2023-08-17T04:53:05;19.33;;;12.85;;
76894;SDS011;65855;42.030;13.078;2023-08-17T04:55:31;20.45;;;11.90;;
76894;SDS011;65855;42.030;13.078;2023-08-17T04:57:59;17.63;;;11.52;;
76894;SDS011;65855;42.030;13.078;2023-08-17T05:00:24;20.83;;;12.23;;
76894;SDS011;65855;42.030;13.078;2023-08-17T05:02:53;19.65;;;12.10;;
76894;SDS011;65855;42.030;13.078;2023-08-17T05:05:19;20.48;;;12.75;;
76894;SDS011;65855;42.030;13.078;2023-08-17T05:07:45;18.30;;;11.35;;
76894;SDS011;65855;42.030;13.078;2023-08-17T05:10:10;16.65;;;10.93;;
76894;SDS011;65855;42.030;13.078;2023-08-17T05:12:35;20.42;;;11.63;;
76894;SDS011;65855;42.030;13.078;2023-08-17T05:15:01;16.08;;;10.18;;
76894;SDS011;65855;42.030;13.078;2023-08-17T05:17:26;19.30;;;11.60;;
76894;SDS011;65855;42.030;13.078;2023-08-17T05:19:52;14.35;;;8.95;;
76894;SDS011;65855;42.030;13.078;2023-08-17T05:22:17;33.90;;;11.88;;
76894;SDS011;65855;42.030;13.078;2023-08-17T05:24:43;43.95;;;13.80;;
76894;SDS011;65855;42.030;13.078;2023-08-17T05:27:08;19.98;;;12.65;;
76894;SDS011;65855;42.030;13.078;2023-08-17T05:29:34;19.60;;;12.48;;
76894;SDS011;65855;42.030;13.078;2023-08-17T05:31:59;20.90;;;13.90;;
76894;SDS011;65855;42.030;13.078;2023-08-17T05:34:25;18.27;;;12.45;;
76894;SDS011;65855;42.030;13.078;2023-08-17T05:36:50;25.10;;;12.75;;
76894;SDS011;65855;42.030;13.078;2023-08-17T05:39:15;17.52;;;11.48;;
76894;SDS011;65855;42.030;13.078;2023-08-17T05:41:41;17.35;;;11.48;;
76894;SDS011;65855;42.030;13.078;2023-08-17T05:44:06;17.27;;;10.75;;
76894;SDS011;65855;42.030;13.078;2023-08-17T05:46:35;14.95;;;9.40;;
76894;SDS011;65855;42.030;13.078;2023-08-17T05:49:01;17.58;;;10.55;;
76894;SDS011;65855;42.030;13.078;2023-08-17T05:51:27;21.55;;;10.35;;
76894;SDS011;65855;42.030;13.078;2023-08-17T05:53:52;16.38;;;10.88;;
76894;SDS011;65855;42.030;13.078;2023-08-17T05:56:18;15.00;;;11.10;;
76894;SDS011;65855;42.030;13.078;2023-08-17T05:58:43;17.33;;;11.40;;
76894;SDS011;65855;42.030;13.078;2023-08-17T06:01:09;14.75;;;9.75;;
76894;SDS011;65855;42.030;13.078;2023-08-17T06:03:36;15.75;;;9.60;;
76894;SDS011;65855;42.030;13.078;2023-08-17T06:06:02;16.80;;;9.50;;
76894;SDS011;65855;42.030;13.078;2023-08-17T06:08:28;14.65;;;9.95;;
76894;SDS011;65855;42.030;13.078;2023-08-17T06:10:55;15.35;;;9.38;;
76894;SDS011;65855;42.030;13.078;2023-08-17T06:13:20;15.88;;;9.52;;
76894;SDS011;65855;42.030;13.078;2023-08-17T06:15:46;12.98;;;8.05;;
76894;SDS011;65855;42.030;13.078;2023-08-17T06:18:12;12.77;;;8.25;;
76894;SDS011;65855;42.030;13.078;2023-08-17T06:20:37;14.73;;;8.13;;
76894;SDS011;65855;42.030;13.078;2023-08-17T06:23:03;15.48;;;8.90;;
76894;SDS011;65855;42.030;13.078;2023-08-17T06:25:28;12.65;;;8.68;;
76894;SDS011;65855;42.030;13.078;2023-08-17T06:27:54;11.57;;;7.63;;
76894;SDS011;65855;42.030;13.078;2023-08-17T06:30:19;14.70;;;8.70;;
76894;SDS011;65855;42.030;13.078;2023-08-17T06:32:45;14.02;;;7.97;;
76894;SDS011;65855;42.030;13.078;2023-08-17T06:35:10;11.77;;;8.30;;
76894;SDS011;65855;42.030;13.078;2023-08-17T06:37:36;12.27;;;7.80;;
76894;SDS011;65855;42.030;13.078;2023-08-17T06:40:02;11.40;;;6.93;;
76894;SDS011;65855;42.030;13.078;2023-08-17T06:42:31;12.02;;;7.30;;
76894;SDS011;65855;42.030;13.078;2023-08-17T06:44:56;11.60;;;7.70;;
76894;SDS011;65855;42.030;13.078;2023-08-17T06:47:22;11.45;;;7.00;;
76894;SDS011;65855;42.030;13.078;2023-08-17T06:49:47;11.35;;;6.47;;
76894;SDS011;65855;42.030;13.078;2023-08-17T06:52:13;16.33;;;7.30;;
76894;SDS011;65855;42.030;13.078;2023-08-17T06:54:38;11.20;;;6.95;;
76894;SDS011;65855;42.030;13.078;2023-08-17T06:57:04;12.45;;;7.22;;
76894;SDS011;65855;42.030;13.078;2023-08-17T06:59:29;12.00;;;7.22;;
76894;SDS011;65855;42.030;13.078;2023-08-17T07:01:56;12.63;;;8.07;;
76894;SDS011;65855;42.030;13.078;2023-08-17T07:04:21;11.10;;;6.60;;
76894;SDS011;65855;42.030;13.078;2023-08-17T07:06:48;11.32;;;7.55;;
76894;SDS011;65855;42.030;13.078;2023-08-17T07:09:14;12.98;;;7.80;;
76894;SDS011;65855;42.030;13.078;2023-08-17T07:11:39;12.45;;;8.60;;
76894;SDS011;65855;42.030;13.078;2023-08-17T07:14:05;11.23;;;7.30;;
76894;SDS011;65855;42.030;13.078;2023-08-17T07:16:31;11.65;;;7.57;;
76894;SDS011;65855;42.030;13.078;2023-08-17T07:18:57;11.73;;;7.82;;
76894;SDS011;65855;42.030;13.078;2023-08-17T07:21:23;12.55;;;8.45;;
76894;SDS011;65855;42.030;13.078;2023-08-17T07:23:48;12.68;;;7.07;;
76894;SDS011;65855;42.030;13.078;2023-08-17T07:26:15;12.90;;;7.65;;
76894;SDS011;65855;42.030;13.078;2023-08-17T07:28:43;11.65;;;7.88;;
76894;SDS011;65855;42.030;13.078;2023-08-17T07:31:09;11.02;;;7.90;;
76894;SDS011;65855;42.030;13.078;2023-08-17T07:33:34;11.43;;;7.80;;
76894;SDS011;65855;42.030;13.078;2023-08-17T07:36:00;11.32;;;7.28;;
76894;SDS011;65855;42.030;13.078;2023-08-17T07:38:25;12.35;;;8.00;;
76894;SDS011;65855;42.030;13.078;2023-08-17T07:40:51;12.25;;;7.43;;
76894;SDS011;65855;42.030;13.078;2023-08-17T07:43:16;11.68;;;8.38;;
76894;SDS011;65855;42.030;13.078;2023-08-17T07:45:42;12.10;;;8.05;;
76894;SDS011;65855;42.030;13.078;2023-08-17T07:48:07;13.35;;;8.05;;
76894;SDS011;65855;42.030;13.078;2023-08-17T07:50:33;11.75;;;7.88;;
76894;SDS011;65855;42.030;13.078;2023-08-17T07:52:58;11.68;;;7.82;;
76894;SDS011;65855;42.030;13.078;2023-08-17T07:55:25;10.43;;;7.75;;
76894;SDS011;65855;42.030;13.078;2023-08-17T07:57:51;11.30;;;7.75;;
76894;SDS011;65855;42.030;13.078;2023-08-17T08:00:17;10.43;;;7.22;;
76894;SDS011;65855;42.030;13.078;2023-08-17T08:02:42;15.60;;;7.97;;
76894;SDS011;65855;42.030;13.078;2023-08-17T08:05:08;11.23;;;7.40;;
76894;SDS011;65855;42.030;13.078;2023-08-17T08:07:33;12.20;;;7.03;;
76894;SDS011;65855;42.030;13.078;2023-08-17T08:09:59;10.82;;;7.20;;
76894;SDS011;65855;42.030;13.078;2023-08-17T08:12:24;12.88;;;8.43;;
76894;SDS011;65855;42.030;13.078;2023-08-17T08:14:50;10.93;;;7.05;;
76894;SDS011;65855;42.030;13.078;2023-08-17T08:17:16;11.45;;;6.85;;
76894;SDS011;65855;42.030;13.078;2023-08-17T08:19:41;10.65;;;6.07;;
76894;SDS011;65855;42.030;13.078;2023-08-17T08:22:07;9.18;;;6.35;;
76894;SDS011;65855;42.030;13.078;2023-08-17T08:24:32;12.05;;;7.03;;
76894;SDS011;65855;42.030;13.078;2023-08-17T08:27:00;9.90;;;7.18;;
76894;SDS011;65855;42.030;13.078;2023-08-17T08:29:26;9.13;;;6.53;;
76894;SDS011;65855;42.030;13.078;2023-08-17T08:31:52;12.15;;;6.90;;
76894;SDS011;65855;42.030;13.078;2023-08-17T08:34:18;10.00;;;6.97;;
76894;SDS011;65855;42.030;13.078;2023-08-17T08:36:43;10.23;;;7.35;;
76894;SDS011;65855;42.030;13.078;2023-08-17T08:39:09;12.43;;;7.53;;
76894;SDS011;65855;42.030;13.078;2023-08-17T08:41:35;10.30;;;7.20;;
76894;SDS011;65855;42.030;13.078;2023-08-17T08:44:02;9.32;;;6.72;;
76894;SDS011;65855;42.030;13.078;2023-08-17T08:46:30;10.40;;;7.05;;
76894;SDS011;65855;42.030;13.078;2023-08-17T08:48:58;10.40;;;7.15;;
76894;SDS011;65855;42.030;13.078;2023-08-17T08:51:25;9.45;;;7.22;;
76894;SDS011;65855;42.030;13.078;2023-08-17T08:53:57;9.70;;;6.05;;
76894;SDS011;65855;42.030;13.078;2023-08-17T08:56:27;10.18;;;6.68;;
76894;SDS011;65855;42.030;13.078;2023-08-17T08:58:57;13.27;;;7.25;;
76894;SDS011;65855;42.030;13.078;2023-08-17T09:01:23;10.82;;;6.97;;
76894;SDS011;65855;42.030;13.078;2023-08-17T09:03:50;9.38;;;6.18;;
76894;SDS011;65855;42.030;13.078;2023-08-17T09:06:16;9.98;;;6.65;;
76894;SDS011;65855;42.030;13.078;2023-08-17T09:08:43;11.15;;;6.85;;
76894;SDS011;65855;42.030;13.078;2023-08-17T09:11:10;11.95;;;7.15;;
76894;SDS011;65855;42.030;13.078;2023-08-17T09:13:35;10.55;;;7.03;;
76894;SDS011;65855;42.030;13.078;2023-08-17T09:16:01;10.98;;;6.43;;
76894;SDS011;65855;42.030;13.078;2023-08-17T09:18:26;9.73;;;6.32;;
76894;SDS011;65855;42.030;13.078;2023-08-17T09:20:52;10.77;;;6.60;;
76894;SDS011;65855;42.030;13.078;2023-08-17T09:23:18;9.80;;;5.97;;
76894;SDS011;65855;42.030;13.078;2023-08-17T09:25:47;9.70;;;6.47;;
76894;SDS011;65855;42.030;13.078;2023-08-17T09:28:17;10.43;;;7.32;;
76894;SDS011;65855;42.030;13.078;2023-08-17T09:30:59;10.43;;;5.95;;
76894;SDS011;65855;42.030;13.078;2023-08-17T09:33:29;9.77;;;6.28;;
76894;SDS011;65855;42.030;13.078;2023-08-17T09:35:56;9.98;;;6.28;;
76894;SDS011;65855;42.030;13.078;2023-08-17T09:38:22;9.02;;;6.22;;
76894;SDS011;65855;42.030;13.078;2023-08-17T09:40:48;9.52;;;5.72;;
76894;SDS011;65855;42.030;13.078;2023-08-17T09:43:15;8.50;;;4.80;;
76894;SDS011;65855;42.030;13.078;2023-08-17T09:45:42;8.63;;;6.13;;
76894;SDS011;65855;42.030;13.078;2023-08-17T09:48:14;8.95;;;5.65;;
76894;SDS011;65855;42.030;13.078;2023-08-17T09:50:42;8.35;;;5.18;;
76894;SDS011;65855;42.030;13.078;2023-08-17T09:53:18;10.77;;;5.43;;
76894;SDS011;65855;42.030;13.078;2023-08-17T09:55:44;8.77;;;5.10;;
76894;SDS011;65855;42.030;13.078;2023-08-17T09:58:11;8.35;;;4.93;;
76894;SDS011;65855;42.030;13.078;2023-08-17T10:00:43;8.27;;;4.82;;
76894;SDS011;65855;42.030;13.078;2023-08-17T10:03:10;8.68;;;5.07;;
76894;SDS011;65855;42.030;13.078;2023-08-17T10:05:39;10.32;;;5.00;;
76894;SDS011;65855;42.030;13.078;2023-08-17T10:08:06;8.18;;;4.78;;
76894;SDS011;65855;42.030;13.078;2023-08-17T10:10:34;9.50;;;4.95;;
76894;SDS011;65855;42.030;13.078;2023-08-17T10:13:03;7.80;;;3.97;;
76894;SDS011;65855;42.030;13.078;2023-08-17T10:15:37;8.30;;;5.05;;
76894;SDS011;65855;42.030;13.078;2023-08-17T10:20:49;9.32;;;4.90;;
76894;SDS011;65855;42.030;13.078;2023-08-17T10:23:27;8.13;;;4.85;;
76894;SDS011;65855;42.030;13.078;2023-08-17T10:25:54;8.68;;;5.10;;
76894;SDS011;65855;42.030;13.078;2023-08-17T10:28:23;10.48;;;4.80;;
76894;SDS011;65855;42.030;13.078;2023-08-17T10:30:49;9.00;;;4.93;;
76894;SDS011;65855;42.030;13.078;2023-08-17T10:33:16;8.90;;;5.82;;
76894;SDS011;65855;42.030;13.078;2023-08-17T10:35:42;7.97;;;4.40;;
76894;SDS011;65855;42.030;13.078;2023-08-17T10:38:08;7.95;;;4.70;;
76894;SDS011;65855;42.030;13.078;2023-08-17T10:40:38;7.93;;;4.47;;
76894;SDS011;65855;42.030;13.078;2023-08-17T10:43:06;9.07;;;5.60;;
76894;SDS011;65855;42.030;13.078;2023-08-17T10:45:32;9.63;;;5.20;;
76894;SDS011;65855;42.030;13.078;2023-08-17T10:50:32;9.20;;;4.70;;
76894;SDS011;65855;42.030;13.078;2023-08-17T10:53:03;8.15;;;4.47;;
76894;SDS011;65855;42.030;13.078;2023-08-17T10:55:36;7.63;;;4.75;;
76894;SDS011;65855;42.030;13.078;2023-08-17T10:58:03;7.97;;;4.63;;
76894;SDS011;65855;42.030;13.078;2023-08-17T11:00:38;8.57;;;5.35;;
76894;SDS011;65855;42.030;13.078;2023-08-17T11:03:05;8.88;;;5.10;;
76894;SDS011;65855;42.030;13.078;2023-08-17T11:05:46;8.77;;;6.07;;
76894;SDS011;65855;42.030;13.078;2023-08-17T11:08:21;8.35;;;5.50;;
76894;SDS011;65855;42.030;13.078;2023-08-17T11:13:29;8.02;;;5.20;;
76894;SDS011;65855;42.030;13.078;2023-08-17T11:15:59;8.43;;;5.05;;
76894;SDS011;65855;42.030;13.078;2023-08-17T11:18:26;8.55;;;4.70;;
76894;SDS011;65855;42.030;13.078;2023-08-17T11:20:52;9.05;;;5.80;;
76894;SDS011;65855;42.030;13.078;2023-08-17T11:23:19;8.45;;;5.70;;
76894;SDS011;65855;42.030;13.078;2023-08-17T11:25:45;8.45;;;5.15;;
76894;SDS011;65855;42.030;13.078;2023-08-17T11:28:11;8.27;;;5.80;;
76894;SDS011;65855;42.030;13.078;2023-08-17T11:30:39;10.95;;;5.95;;
76894;SDS011;65855;42.030;13.078;2023-08-17T11:33:06;8.98;;;5.80;;
76894;SDS011;65855;42.030;13.078;2023-08-17T11:35:33;9.60;;;5.57;;
76894;SDS011;65855;42.030;13.078;2023-08-17T11:37:59;8.57;;;5.13;;
76894;SDS011;65855;42.030;13.078;2023-08-17T11:40:25;8.60;;;5.07;;
76894;SDS011;65855;42.030;13.078;2023-08-17T11:42:51;11.68;;;5.15;;
76894;SDS011;65855;42.030;13.078;2023-08-17T11:45:17;7.97;;;5.13;;
76894;SDS011;65855;42.030;13.078;2023-08-17T11:47:43;9.65;;;5.88;;
76894;SDS011;65855;42.030;13.078;2023-08-17T11:50:10;9.88;;;5.50;;
76894;SDS011;65855;42.030;13.078;2023-08-17T11:52:37;8.98;;;5.55;;
76894;SDS011;65855;42.030;13.078;2023-08-17T11:55:03;10.00;;;5.25;;
76894;SDS011;65855;42.030;13.078;2023-08-17T11:57:31;10.48;;;5.95;;
76894;SDS011;65855;42.030;13.078;2023-08-17T11:59:57;8.85;;;5.25;;
76894;SDS011;65855;42.030;13.078;2023-08-17T12:02:24;9.38;;;5.93;;
76894;SDS011;65855;42.030;13.078;2023-08-17T12:04:50;8.57;;;5.13;;
76894;SDS011;65855;42.030;13.078;2023-08-17T12:07:16;8.50;;;5.20;;
76894;SDS011;65855;42.030;13.078;2023-08-17T12:09:43;8.88;;;5.03;;
76894;SDS011;65855;42.030;13.078;2023-08-17T12:12:09;9.25;;;5.18;;
76894;SDS011;65855;42.030;13.078;2023-08-17T12:14:36;8.10;;;5.50;;
76894;SDS011;65855;42.030;13.078;2023-08-17T12:17:02;8.40;;;5.68;;
76894;SDS011;65855;42.030;13.078;2023-08-17T12:19:29;8.15;;;5.40;;
76894;SDS011;65855;42.030;13.078;2023-08-17T12:21:54;8.65;;;5.05;;
76894;SDS011;65855;42.030;13.078;2023-08-17T12:24:25;8.93;;;5.75;;
76894;SDS011;65855;42.030;13.078;2023-08-17T12:26:51;7.88;;;5.13;;
76894;SDS011;65855;42.030;13.078;2023-08-17T12:29:17;10.40;;;5.95;;
76894;SDS011;65855;42.030;13.078;2023-08-17T12:31:42;7.38;;;4.72;;
76894;SDS011;65855;42.030;13.078;2023-08-17T12:34:09;9.27;;;5.28;;
76894;SDS011;65855;42.030;13.078;2023-08-17T12:36:35;10.98;;;6.03;;
76894;SDS011;65855;42.030;13.078;2023-08-17T12:39:02;12.13;;;5.82;;
76894;SDS011;65855;42.030;13.078;2023-08-17T12:41:29;10.20;;;5.97;;
76894;SDS011;65855;42.030;13.078;2023-08-17T12:43:54;8.02;;;4.93;;
76894;SDS011;65855;42.030;13.078;2023-08-17T12:46:20;9.18;;;5.22;;
76894;SDS011;65855;42.030;13.078;2023-08-17T12:48:45;8.32;;;4.97;;
76894;SDS011;65855;42.030;13.078;2023-08-17T12:51:11;8.80;;;5.40;;
76894;SDS011;65855;42.030;13.078;2023-08-17T12:53:36;7.85;;;4.88;;
76894;SDS011;65855;42.030;13.078;2023-08-17T12:56:02;10.05;;;5.57;;
76894;SDS011;65855;42.030;13.078;2023-08-17T12:58:27;8.40;;;5.20;;
76894;SDS011;65855;42.030;13.078;2023-08-17T13:00:53;8.38;;;4.88;;
76894;SDS011;65855;42.030;13.078;2023-08-17T13:03:19;8.82;;;5.30;;
76894;SDS011;65855;42.030;13.078;2023-08-17T13:05:45;8.50;;;5.05;;
76894;SDS011;65855;42.030;13.078;2023-08-17T13:08:10;8.40;;;5.45;;
76894;SDS011;65855;42.030;13.078;2023-08-17T13:10:36;8.43;;;5.22;;
76894;SDS011;65855;42.030;13.078;2023-08-17T13:13:02;11.23;;;5.45;;
76894;SDS011;65855;42.030;13.078;2023-08-17T13:15:28;8.73;;;6.00;;
76894;SDS011;65855;42.030;13.078;2023-08-17T13:17:54;8.77;;;5.10;;
76894;SDS011;65855;42.030;13.078;2023-08-17T13:20:19;8.40;;;5.15;;
76894;SDS011;65855;42.030;13.078;2023-08-17T13:22:45;8.68;;;5.10;;
76894;SDS011;65855;42.030;13.078;2023-08-17T13:25:10;8.10;;;4.93;;
76894;SDS011;65855;42.030;13.078;2023-08-17T13:27:36;8.35;;;5.20;;
76894;SDS011;65855;42.030;13.078;2023-08-17T13:30:01;8.55;;;5.20;;
76894;SDS011;65855;42.030;13.078;2023-08-17T13:32:27;8.93;;;5.35;;
76894;SDS011;65855;42.030;13.078;2023-08-17T13:34:52;8.75;;;5.30;;
76894;SDS011;65855;42.030;13.078;2023-08-17T13:37:18;7.90;;;4.82;;
76894;SDS011;65855;42.030;13.078;2023-08-17T13:39:45;9.02;;;5.03;;
76894;SDS011;65855;42.030;13.078;2023-08-17T13:42:11;11.13;;;6.15;;
76894;SDS011;65855;42.030;13.078;2023-08-17T13:44:37;10.07;;;5.65;;
76894;SDS011;65855;42.030;13.078;2023-08-17T13:47:03;8.98;;;5.50;;
76894;SDS011;65855;42.030;13.078;2023-08-17T13:49:29;8.73;;;5.22;;
76894;SDS011;65855;42.030;13.078;2023-08-17T13:51:54;8.85;;;5.28;;
76894;SDS011;65855;42.030;13.078;2023-08-17T13:54:21;9.40;;;5.38;;
76894;SDS011;65855;42.030;13.078;2023-08-17T13:56:47;9.68;;;4.50;;
76894;SDS011;65855;42.030;13.078;2023-08-17T13:59:13;9.45;;;5.07;;
76894;SDS011;65855;42.030;13.078;2023-08-17T14:01:38;9.05;;;5.40;;
76894;SDS011;65855;42.030;13.078;2023-08-17T14:04:04;8.20;;;5.22;;
76894;SDS011;65855;42.030;13.078;2023-08-17T14:06:32;9.50;;;4.70;;
76894;SDS011;65855;42.030;13.078;2023-08-17T14:08:57;8.75;;;4.90;;
76894;SDS011;65855;42.030;13.078;2023-08-17T14:11:23;9.77;;;5.63;;
76894;SDS011;65855;42.030;13.078;2023-08-17T14:13:48;9.88;;;5.43;;
76894;SDS011;65855;42.030;13.078;2023-08-17T14:16:13;9.73;;;4.80;;
76894;SDS011;65855;42.030;13.078;2023-08-17T14:18:39;9.05;;;4.82;;
76894;SDS011;65855;42.030;13.078;2023-08-17T14:21:04;8.77;;;4.72;;
76894;SDS011;65855;42.030;13.078;2023-08-17T14:23:30;9.40;;;4.75;;
76894;SDS011;65855;42.030;13.078;2023-08-17T14:25:55;9.07;;;4.90;;
76894;SDS011;65855;42.030;13.078;2023-08-17T14:28:20;8.38;;;4.60;;
76894;SDS011;65855;42.030;13.078;2023-08-17T14:30:46;8.43;;;5.93;;